createdAt,value
2022-11-19T00:03:30.500Z,12.95
2022-11-19T00:06:11.546Z,12.94
2022-11-19T00:12:01.505Z,12.83
2022-11-19T00:20:18.939Z,12.76
2022-11-19T00:26:11.948Z,12.75
2022-11-19T00:37:26.623Z,12.70
2022-11-19T00:40:05.813Z,12.70
2022-11-19T00:51:42.322Z,12.77
2022-11-19T00:54:13.466Z,12.79
2022-11-19T00:56:42.908Z,12.81
2022-11-19T00:59:12.736Z,12.81
2022-11-19T01:01:42.428Z,12.85
2022-11-19T01:04:11.382Z,12.87
2022-11-19T01:06:49.240Z,12.89
2022-11-19T01:09:27.912Z,12.91
2022-11-19T01:11:58.605Z,12.93
2022-11-19T01:14:35.405Z,12.95
2022-11-19T01:17:09.190Z,12.94
2022-11-19T01:31:12.011Z,12.87
2022-11-19T01:39:44.917Z,12.85
2022-11-19T01:42:50.573Z,12.82
2022-11-19T01:45:32.091Z,12.77
2022-11-19T01:48:08.568Z,12.75
2022-11-19T01:50:57.224Z,12.79
2022-11-19T01:53:31.440Z,12.79
2022-11-19T01:56:19.877Z,12.82
2022-11-19T01:59:06.089Z,12.82
2022-11-19T02:01:51.059Z,12.80
2022-11-19T02:04:25.325Z,12.76
2022-11-19T02:06:54.724Z,12.66
2022-11-19T02:09:46.172Z,12.57
2022-11-19T02:12:27.152Z,12.51
2022-11-19T02:15:23.187Z,12.44
2022-11-19T02:18:08.419Z,12.36
2022-11-19T02:20:50.636Z,12.24
2022-11-19T02:24:12.079Z,12.13
2022-11-19T02:27:20.567Z,11.98
2022-11-19T02:30:12.031Z,11.92
2022-11-19T02:32:58.615Z,11.88
2022-11-19T02:35:43.500Z,11.84
2022-11-19T02:38:19.394Z,11.80
2022-11-19T02:40:52.102Z,11.71
2022-11-19T02:43:24.457Z,11.61
2022-11-19T02:46:02.343Z,11.52
2022-11-19T02:48:34.006Z,11.45
2022-11-19T02:51:04.900Z,11.40
2022-11-19T02:53:34.657Z,11.40
2022-11-19T02:56:13.892Z,11.40
2022-11-19T02:59:05.253Z,11.40
2022-11-19T03:01:56.048Z,11.37
2022-11-19T03:04:32.744Z,11.37
2022-11-19T03:07:05.984Z,11.35
2022-11-19T03:09:36.970Z,11.34
2022-11-19T03:12:13.069Z,11.34
2022-11-19T03:15:07.676Z,11.35
2022-11-19T03:17:51.675Z,11.29
2022-11-19T03:20:26.812Z,11.27
2022-11-19T03:23:00.863Z,11.26
2022-11-19T03:25:36.408Z,11.23
2022-11-19T03:28:11.482Z,11.22
2022-11-19T03:30:42.872Z,11.19
2022-11-19T03:33:18.656Z,11.14
2022-11-19T03:35:51.313Z,11.07
2022-11-19T03:38:31.070Z,11.03
2022-11-19T03:41:00.168Z,11.01
2022-11-19T03:43:30.653Z,10.97
2022-11-19T03:46:02.823Z,10.98
2022-11-19T03:48:32.985Z,10.97
2022-11-19T03:51:09.220Z,10.95
2022-11-19T03:53:37.351Z,10.93
2022-11-19T03:56:08.672Z,10.91
2022-11-19T03:58:40.500Z,10.90
2022-11-19T04:01:09.729Z,10.90
2022-11-19T04:03:39.509Z,10.91
2022-11-19T04:06:08.704Z,10.90
2022-11-19T04:08:36.741Z,10.87
2022-11-19T04:13:31.696Z,10.81
2022-11-19T04:15:59.673Z,10.81
2022-11-19T04:18:27.635Z,10.77
2022-11-19T04:20:57.140Z,10.73
2022-11-19T04:23:25.201Z,10.69
2022-11-19T04:25:53.427Z,10.66
2022-11-19T04:28:21.508Z,10.60
2022-11-19T04:30:49.556Z,10.61
2022-11-19T04:33:17.630Z,10.62
2022-11-19T04:35:46.275Z,10.62
2022-11-19T04:38:15.874Z,10.68
2022-11-19T04:40:43.995Z,10.72
2022-11-19T04:43:12.028Z,10.72
2022-11-19T04:45:40.154Z,10.75
2022-11-19T04:48:08.473Z,10.72
2022-11-19T04:50:36.599Z,10.70
2022-11-19T04:53:04.686Z,10.68
2022-11-19T04:55:34.216Z,10.62
2022-11-19T04:58:02.637Z,10.59
2022-11-19T05:00:31.099Z,10.55
2022-11-19T05:02:59.453Z,10.53
2022-11-19T05:05:27.764Z,10.51
2022-11-19T05:07:58.030Z,10.49
2022-11-19T05:10:26.381Z,10.47
2022-11-19T05:12:55.980Z,10.46
2022-11-19T05:15:24.061Z,10.43
2022-11-19T05:17:52.129Z,10.36
2022-11-19T05:20:20.507Z,10.28
2022-11-19T05:22:48.541Z,10.20
2022-11-19T05:25:16.709Z,10.11
2022-11-19T05:27:44.779Z,10.02
2022-11-19T05:30:14.784Z,9.96
2022-11-19T05:32:43.217Z,9.96
2022-11-19T05:35:12.396Z,9.93
2022-11-19T05:37:40.704Z,9.91
2022-11-19T05:40:09.930Z,9.92
2022-11-19T05:42:38.137Z,9.93
2022-11-19T05:45:07.466Z,9.93
2022-11-19T05:47:37.323Z,9.96
2022-11-19T05:50:06.395Z,9.99
2022-11-19T05:52:34.590Z,10.01
2022-11-19T05:55:02.958Z,10.00
2022-11-19T05:57:31.087Z,10.03
2022-11-19T05:59:59.326Z,10.06
2022-11-19T06:02:27.646Z,10.09
2022-11-19T06:04:57.146Z,10.13
2022-11-19T06:07:25.195Z,10.13
2022-11-19T06:09:53.384Z,10.12
2022-11-19T06:12:21.499Z,10.13
2022-11-19T06:14:49.468Z,10.06
2022-11-19T06:17:17.479Z,9.99
2022-11-19T06:19:45.623Z,9.95
2022-11-19T06:22:15.099Z,9.92
2022-11-19T06:24:43.276Z,9.86
2022-11-19T06:27:11.370Z,9.83
2022-11-19T06:29:39.415Z,9.80
2022-11-19T06:32:07.407Z,9.74
2022-11-19T06:34:35.487Z,9.69
2022-11-19T06:37:03.670Z,9.69
2022-11-19T06:39:33.876Z,9.66
2022-11-19T06:42:22.984Z,9.67
2022-11-19T06:44:51.114Z,9.63
2022-11-19T06:47:19.391Z,9.63
2022-11-19T06:49:47.612Z,9.65
2022-11-19T06:52:15.725Z,9.68
2022-11-19T06:54:45.418Z,9.68
2022-11-19T06:57:13.592Z,9.70
2022-11-19T06:59:42.174Z,9.69
2022-11-19T07:02:12.687Z,9.69
2022-11-19T07:04:40.849Z,9.72
2022-11-19T07:07:10.880Z,9.72
2022-11-19T07:09:39.967Z,9.71
2022-11-19T07:12:09.802Z,9.70
2022-11-19T07:14:37.848Z,9.70
2022-11-19T07:17:06.579Z,9.70
2022-11-19T07:19:34.590Z,9.71
2022-11-19T07:22:02.670Z,9.75
2022-11-19T07:24:30.790Z,9.75
2022-11-19T07:26:59.398Z,9.74
2022-11-19T07:29:28.793Z,9.73
2022-11-19T07:31:57.409Z,9.70
2022-11-19T07:34:25.433Z,9.70
2022-11-19T07:36:54.155Z,9.62
2022-11-19T07:39:22.713Z,9.58
2022-11-19T07:42:08.656Z,9.54
2022-11-19T07:44:38.356Z,9.49
2022-11-19T07:47:07.994Z,9.50
2022-11-19T07:49:36.054Z,9.52
2022-11-19T07:52:04.347Z,9.52
2022-11-19T07:54:32.512Z,9.54
2022-11-19T07:57:00.830Z,9.51
2022-11-19T07:59:33.609Z,9.53
2022-11-19T08:02:03.208Z,9.53
2022-11-19T08:04:31.357Z,9.55
2022-11-19T08:06:59.475Z,9.59
2022-11-19T08:09:28.980Z,9.61
2022-11-19T08:11:57.133Z,9.60
2022-11-19T08:14:25.297Z,9.61
2022-11-19T08:17:10.626Z,9.62
2022-11-19T08:19:40.194Z,9.63
2022-11-19T08:22:08.190Z,9.63
2022-11-19T08:24:36.295Z,9.67
2022-11-19T08:27:05.639Z,9.68
2022-11-19T08:29:33.896Z,9.68
2022-11-19T08:32:02.004Z,9.69
2022-11-19T08:34:32.240Z,9.71
2022-11-19T08:37:01.829Z,9.71
2022-11-19T08:39:30.863Z,9.77
2022-11-19T08:42:16.364Z,9.83
2022-11-19T08:44:44.447Z,9.91
2022-11-19T08:47:12.516Z,10.02
2022-11-19T08:49:40.585Z,10.15
2022-11-19T08:52:10.158Z,10.28
2022-11-19T08:54:38.195Z,10.39
2022-11-19T08:57:06.693Z,10.53
2022-11-19T08:59:34.713Z,10.64
2022-11-19T09:02:04.518Z,10.74
2022-11-19T09:04:32.977Z,10.85
2022-11-19T09:07:01.488Z,10.97
2022-11-19T09:09:31.608Z,11.04
2022-11-19T09:11:59.671Z,11.12
2022-11-19T09:14:27.851Z,11.17
2022-11-19T09:16:55.932Z,11.20
2022-11-19T09:19:24.007Z,11.21
2022-11-19T09:21:52.002Z,11.24
2022-11-19T09:24:20.359Z,11.25
2022-11-19T09:26:53.329Z,11.25
2022-11-19T09:29:21.882Z,11.29
2022-11-19T09:31:49.884Z,11.30
2022-11-19T09:34:18.207Z,11.32
2022-11-19T09:36:47.146Z,11.37
2022-11-19T09:39:15.173Z,11.43
2022-11-19T09:41:53.487Z,11.48
2022-11-19T09:44:42.349Z,11.56
2022-11-19T09:47:24.199Z,11.63
2022-11-19T09:50:04.041Z,11.74
2022-11-19T09:52:34.642Z,11.81
2022-11-19T09:55:03.763Z,11.90
2022-11-19T09:57:40.792Z,11.94
2022-11-19T10:00:10.869Z,12.05
2022-11-19T10:02:38.916Z,12.11
2022-11-19T10:05:08.062Z,12.20
2022-11-19T10:07:44.855Z,12.24
2022-11-19T10:10:29.798Z,12.25
2022-11-19T10:13:13.042Z,12.28
2022-11-19T10:16:01.852Z,12.31
2022-11-19T10:18:41.408Z,12.38
2022-11-19T10:21:15.262Z,12.44
2022-11-19T10:23:51.112Z,12.53
2022-11-19T10:26:21.296Z,12.61
2022-11-19T10:28:56.219Z,12.73
2022-11-19T10:31:30.701Z,12.81
2022-11-19T10:34:06.021Z,12.93
2022-11-19T10:36:41.342Z,13.01
2022-11-19T10:39:16.499Z,13.11
2022-11-19T10:41:50.870Z,13.18
2022-11-19T10:44:41.420Z,13.28
2022-11-19T10:47:18.054Z,13.34
2022-11-19T10:49:46.535Z,13.42
2022-11-19T10:52:25.938Z,13.53
2022-11-19T10:54:57.831Z,13.63
2022-11-19T10:57:27.129Z,13.67
2022-11-19T10:59:57.121Z,13.73
2022-11-19T11:02:32.279Z,13.78
2022-11-19T11:05:04.174Z,13.86
2022-11-19T11:07:50.283Z,13.91
2022-11-19T11:10:31.706Z,14.00
2022-11-19T11:13:24.298Z,14.08
2022-11-19T11:15:54.812Z,14.18
2022-11-19T11:18:28.303Z,14.29
2022-11-19T11:20:57.323Z,14.43
2022-11-19T11:23:28.475Z,14.58
2022-11-19T11:26:04.999Z,14.72
2022-11-19T11:28:33.715Z,14.79
2022-11-19T11:31:04.799Z,14.97
2022-11-19T11:33:36.244Z,15.11
2022-11-19T11:36:08.104Z,15.27
2022-11-19T11:38:43.387Z,15.43
2022-11-19T11:42:17.811Z,15.55
2022-11-19T11:44:04.605Z,15.74
2022-11-19T11:46:43.789Z,15.91
2022-11-19T11:49:24.330Z,16.10
2022-11-19T11:52:02.759Z,16.26
2022-11-19T11:54:31.201Z,16.38
2022-11-19T11:57:15.959Z,16.51
2022-11-19T11:59:44.146Z,16.54
2022-11-19T12:02:30.168Z,16.62
2022-11-19T12:05:02.641Z,16.62
2022-11-19T12:07:44.457Z,16.72
2022-11-19T12:10:26.468Z,16.70
2022-11-19T12:13:09.120Z,16.72
2022-11-19T12:15:48.655Z,16.70
2022-11-19T12:18:30.423Z,16.64
2022-11-19T12:21:08.777Z,16.57
2022-11-19T12:24:05.982Z,16.50
2022-11-19T12:26:48.297Z,16.46
2022-11-19T12:29:26.130Z,16.46
2022-11-19T12:32:19.508Z,16.42
2022-11-19T12:35:15.508Z,16.42
2022-11-19T12:37:59.600Z,16.43
2022-11-19T12:40:41.991Z,16.39
2022-11-19T12:43:25.810Z,16.37
2022-11-19T12:46:00.962Z,16.42
2022-11-19T12:48:43.242Z,16.44
2022-11-19T12:51:26.389Z,16.50
2022-11-19T12:54:34.603Z,16.54
2022-11-19T12:57:29.951Z,16.54
2022-11-19T13:00:13.163Z,16.56
2022-11-19T13:02:49.708Z,16.58
2022-11-19T13:05:21.935Z,16.59
2022-11-19T13:07:59.363Z,16.55
2022-11-19T13:10:34.291Z,16.54
2022-11-19T13:13:04.421Z,16.56
2022-11-19T13:15:38.610Z,16.56
2022-11-19T13:18:12.866Z,16.54
2022-11-19T13:20:48.449Z,16.54
2022-11-19T13:23:27.712Z,16.55
2022-11-19T13:26:00.996Z,16.52
2022-11-19T13:28:39.343Z,16.56
2022-11-19T13:31:14.500Z,16.59
2022-11-19T13:33:51.245Z,16.64
2022-11-19T13:36:23.788Z,16.63
2022-11-19T13:38:57.331Z,16.57
2022-11-19T13:41:30.958Z,16.56
2022-11-19T13:44:17.541Z,16.48
2022-11-19T13:46:49.393Z,16.48
2022-11-19T13:49:21.842Z,16.50
2022-11-19T13:51:54.019Z,16.50
2022-11-19T13:54:29.498Z,16.52
2022-11-19T13:56:59.872Z,16.48
2022-11-19T13:59:33.982Z,16.54
2022-11-19T14:02:46.514Z,16.50
2022-11-19T14:05:42.101Z,16.46
2022-11-19T14:08:40.102Z,16.45
2022-11-19T14:11:23.093Z,16.44
2022-11-19T14:14:08.304Z,16.44
2022-11-19T14:17:04.050Z,16.43
2022-11-19T14:20:21.483Z,16.39
2022-11-19T14:23:14.213Z,16.40
2022-11-19T14:26:03.847Z,16.33
2022-11-19T14:28:51.373Z,16.31
2022-11-19T14:31:20.920Z,16.30
2022-11-19T14:34:00.216Z,16.30
2022-11-19T14:36:45.012Z,16.33
2022-11-19T14:39:23.007Z,16.30
2022-11-19T14:42:18.840Z,16.28
2022-11-19T14:45:21.012Z,16.19
2022-11-19T14:47:49.464Z,16.11
2022-11-19T14:50:27.912Z,16.07
2022-11-19T14:52:58.973Z,16.10
2022-11-19T14:55:29.646Z,16.18
2022-11-19T14:58:02.137Z,16.30
2022-11-19T15:00:35.043Z,16.42
2022-11-19T15:03:06.009Z,16.45
2022-11-19T15:05:36.996Z,16.46
2022-11-19T15:08:31.288Z,16.39
2022-11-19T15:11:08.001Z,16.31
2022-11-19T15:13:37.225Z,16.23
2022-11-19T15:16:16.310Z,16.14
2022-11-19T15:19:23.673Z,16.03
2022-11-19T15:22:10.853Z,15.93
2022-11-19T15:24:55.904Z,15.86
2022-11-19T15:27:35.816Z,15.79
2022-11-19T15:30:13.996Z,15.76
2022-11-19T15:32:59.757Z,15.70
2022-11-19T15:35:41.425Z,15.65
2022-11-19T15:38:20.602Z,15.62
2022-11-19T15:40:49.657Z,15.60
2022-11-19T15:43:25.575Z,15.55
2022-11-19T15:45:57.102Z,15.48
2022-11-19T15:48:35.184Z,15.43
2022-11-19T15:51:05.030Z,15.38
2022-11-19T15:53:33.781Z,15.33
2022-11-19T15:56:06.712Z,15.31
2022-11-19T15:58:38.510Z,15.26
2022-11-19T16:01:09.523Z,15.19
2022-11-19T16:03:40.825Z,15.17
2022-11-19T16:06:12.403Z,15.15
2022-11-19T16:08:41.009Z,15.10
2022-11-19T16:11:26.820Z,15.06
2022-11-19T16:14:13.361Z,15.02
2022-11-19T16:17:13.596Z,14.97
2022-11-19T16:19:43.413Z,14.92
2022-11-19T16:22:12.020Z,14.87
2022-11-19T16:24:57.406Z,14.88
2022-11-19T16:27:26.745Z,14.82
2022-11-19T16:29:55.457Z,14.80
2022-11-19T16:32:26.963Z,14.77
2022-11-19T16:35:10.566Z,14.75
2022-11-19T16:37:39.880Z,14.70
2022-11-19T16:40:15.588Z,14.66
2022-11-19T16:42:49.801Z,14.63
2022-11-19T16:45:21.740Z,14.56
2022-11-19T16:47:57.559Z,14.52
2022-11-19T16:50:33.328Z,14.51
2022-11-19T16:53:04.515Z,14.49
2022-11-19T16:55:53.975Z,14.45
2022-11-19T16:58:26.530Z,14.43
2022-11-19T17:00:59.824Z,14.39
2022-11-19T17:03:35.852Z,14.39
2022-11-19T17:06:07.464Z,14.37
2022-11-19T17:08:37.801Z,14.37
2022-11-19T17:11:41.147Z,14.34
2022-11-19T17:14:21.763Z,14.31
2022-11-19T17:16:52.015Z,14.28
2022-11-19T17:19:24.898Z,14.31
2022-11-19T17:22:00.111Z,14.33
2022-11-19T17:24:32.663Z,14.32
2022-11-19T17:27:01.142Z,14.34
2022-11-19T17:29:29.272Z,14.32
2022-11-19T17:32:00.836Z,14.31
2022-11-19T17:37:19.150Z,14.31
2022-11-19T17:39:51.416Z,14.30
2022-11-19T17:42:37.099Z,14.32
2022-11-19T17:45:10.617Z,14.28
2022-11-19T17:47:39.578Z,14.27
2022-11-19T17:50:23.859Z,14.27
2022-11-19T17:56:23.721Z,14.28
2022-11-19T17:59:17.834Z,14.29
2022-11-19T18:01:47.235Z,14.29
2022-11-19T18:04:30.736Z,14.31
2022-11-19T18:07:01.281Z,14.30
2022-11-19T18:09:36.214Z,14.33
2022-11-19T18:12:15.180Z,14.33
2022-11-19T18:14:45.649Z,14.32
2022-11-19T18:20:03.472Z,14.33
2022-11-19T18:25:37.458Z,14.35
2022-11-19T18:28:07.891Z,14.35
2022-11-19T18:30:51.057Z,14.36
2022-11-19T18:33:44.901Z,14.34
2022-11-19T18:36:13.582Z,14.37
2022-11-19T18:38:48.826Z,14.35
2022-11-19T18:41:25.342Z,14.34
2022-11-19T18:50:18.793Z,14.29
2022-11-19T19:01:52.636Z,14.33
2022-11-19T19:04:29.031Z,14.33
2022-11-19T19:07:07.227Z,14.35
2022-11-19T19:09:54.461Z,14.36
2022-11-19T19:16:17.658Z,14.37
2022-11-19T19:19:05.510Z,14.31
2022-11-19T19:24:56.744Z,14.37
2022-11-19T19:30:24.021Z,14.38
2022-11-19T19:32:53.923Z,14.40
2022-11-19T19:36:07.650Z,14.38
2022-11-19T19:41:38.676Z,14.39
2022-11-19T19:44:28.729Z,14.39
2022-11-19T19:50:20.031Z,14.39
2022-11-19T19:56:24.445Z,14.42
2022-11-19T19:58:59.208Z,14.44
2022-11-19T20:01:33.739Z,14.44
2022-11-19T20:04:04.753Z,14.45
2022-11-19T20:06:38.021Z,14.44
2022-11-19T20:09:21.036Z,14.43
2022-11-19T20:11:53.675Z,14.43
2022-11-19T20:14:22.988Z,14.41
2022-11-19T20:22:48.689Z,14.38
2022-11-19T20:25:20.586Z,14.34
2022-11-19T20:28:04.109Z,14.36
2022-11-19T20:30:32.269Z,14.34
2022-11-19T20:33:02.272Z,14.33
2022-11-19T20:35:30.739Z,14.32
2022-11-19T20:41:04.550Z,14.26
2022-11-19T20:43:53.076Z,14.26
2022-11-19T20:46:24.406Z,14.23
2022-11-19T20:49:04.866Z,14.24
2022-11-19T20:51:34.043Z,14.22
2022-11-19T20:54:02.452Z,14.21
2022-11-19T20:56:30.772Z,14.21
2022-11-19T20:59:00.945Z,14.19
2022-11-19T21:01:31.503Z,14.20
2022-11-19T21:04:00.716Z,14.21
2022-11-19T21:06:32.992Z,14.19
2022-11-19T21:09:01.448Z,14.20
2022-11-19T21:11:30.075Z,14.22
2022-11-19T21:20:19.669Z,14.14
2022-11-19T21:23:09.682Z,14.13
2022-11-19T21:25:44.476Z,14.16
2022-11-19T21:28:16.355Z,14.14
2022-11-19T21:37:24.629Z,14.13
2022-11-19T21:43:02.888Z,14.07
2022-11-19T21:45:48.907Z,14.08
2022-11-19T21:51:40.368Z,14.09
2022-11-19T22:03:11.726Z,14.10
2022-11-19T22:06:04.631Z,14.13
2022-11-19T22:08:37.495Z,14.13
2022-11-19T22:30:08.036Z,14.13
2022-11-19T22:38:23.753Z,14.17
2022-11-19T22:40:54.278Z,14.18
2022-11-19T22:43:25.458Z,14.18
2022-11-19T22:45:57.903Z,14.18
2022-11-19T22:48:43.637Z,14.17
2022-11-19T22:51:16.206Z,14.16
2022-11-19T22:57:10.680Z,14.15
2022-11-19T23:02:57.186Z,14.09
2022-11-19T23:12:42.304Z,14.07
2022-11-19T23:15:27.396Z,14.10
2022-11-19T23:18:20.533Z,14.16
2022-11-19T23:20:50.149Z,14.20
2022-11-19T23:32:04.038Z,14.26
2022-11-19T23:34:48.688Z,14.30
2022-11-19T23:37:24.832Z,14.31
2022-11-19T23:39:55.290Z,14.33
2022-11-19T23:42:28.294Z,14.37
2022-11-19T23:44:57.474Z,14.37
2022-11-19T23:47:27.075Z,14.39
2022-11-19T23:49:57.196Z,14.41
2022-11-19T23:52:51.022Z,14.43
2022-11-19T23:55:23.725Z,14.44
2022-11-19T23:57:56.747Z,14.50
